createdAt,value
2017-12-25T00:00:49.000Z,23.93
2017-12-25T00:10:49.000Z,23.88
2017-12-25T00:20:49.000Z,23.73
2017-12-25T00:30:49.000Z,23.71
2017-12-25T00:40:49.000Z,23.72
2017-12-25T00:50:51.000Z,23.65
2017-12-25T01:00:49.000Z,23.64
2017-12-25T01:10:49.000Z,23.57
2017-12-25T01:20:49.000Z,23.51
2017-12-25T01:30:49.000Z,23.43
2017-12-25T01:40:49.000Z,23.34
2017-12-25T01:50:49.000Z,23.22
2017-12-25T02:00:49.000Z,23.23
2017-12-25T02:10:49.000Z,23.1
2017-12-25T02:20:49.000Z,22.99
2017-12-25T02:30:49.000Z,22.82
2017-12-25T02:40:50.000Z,22.82
2017-12-25T02:50:49.000Z,22.76
2017-12-25T03:00:49.000Z,22.78
2017-12-25T03:10:49.000Z,22.68
2017-12-25T03:20:49.000Z,22.63
2017-12-25T03:30:50.000Z,22.53
2017-12-25T03:40:50.000Z,22.49
2017-12-25T03:50:50.000Z,22.45
2017-12-25T04:00:50.000Z,22.42
2017-12-25T04:10:50.000Z,22.4
2017-12-25T04:20:50.000Z,22.36
2017-12-25T04:30:50.000Z,22.33
2017-12-25T04:40:50.000Z,22.25
2017-12-25T04:50:50.000Z,22.24
2017-12-25T05:00:50.000Z,22.21
2017-12-25T05:10:50.000Z,22.17
2017-12-25T05:20:50.000Z,22.18
2017-12-25T05:30:50.000Z,22.16
2017-12-25T05:40:50.000Z,22.2
2017-12-25T05:50:50.000Z,22.2
2017-12-25T06:00:50.000Z,22.24
2017-12-25T06:10:50.000Z,22.26
2017-12-25T06:20:50.000Z,22.31
2017-12-25T06:30:50.000Z,22.31
2017-12-25T06:40:50.000Z,22.34
2017-12-25T06:50:50.000Z,22.35
2017-12-25T07:00:50.000Z,22.38
2017-12-25T07:10:50.000Z,22.41
2017-12-25T07:20:50.000Z,22.49
2017-12-25T07:30:50.000Z,22.44
2017-12-25T07:40:50.000Z,22.46
2017-12-25T07:50:50.000Z,22.52
2017-12-25T08:00:50.000Z,22.54
2017-12-25T08:10:50.000Z,22.55
2017-12-25T08:20:50.000Z,22.55
2017-12-25T08:30:50.000Z,22.66
2017-12-25T08:40:50.000Z,22.65
2017-12-25T08:50:50.000Z,22.67
2017-12-25T09:00:50.000Z,22.69
2017-12-25T09:10:50.000Z,22.72
2017-12-25T09:20:50.000Z,22.74
2017-12-25T09:30:50.000Z,22.76
2017-12-25T09:40:50.000Z,22.8
2017-12-25T09:50:50.000Z,22.8
2017-12-25T10:00:50.000Z,22.97
2017-12-25T10:10:50.000Z,22.95
2017-12-25T10:20:50.000Z,23.04
2017-12-25T10:30:50.000Z,23.14
2017-12-25T10:40:50.000Z,23.29
2017-12-25T10:50:50.000Z,23.43
2017-12-25T11:00:50.000Z,23.61
2017-12-25T11:10:50.000Z,23.63
2017-12-25T11:20:50.000Z,23.56
2017-12-25T11:30:50.000Z,23.55
2017-12-25T11:40:50.000Z,23.55
2017-12-25T11:50:51.000Z,23.72
2017-12-25T12:00:51.000Z,23.8
2017-12-25T12:10:51.000Z,23.81
2017-12-25T12:20:51.000Z,23.66
2017-12-25T12:30:51.000Z,23.8
2017-12-25T12:40:51.000Z,23.87
2017-12-25T12:50:51.000Z,23.92
2017-12-25T13:00:51.000Z,23.84
2017-12-25T13:10:51.000Z,24.02
2017-12-25T13:20:51.000Z,24.05
2017-12-25T13:30:51.000Z,23.98
2017-12-25T13:40:51.000Z,23.98
2017-12-25T13:50:51.000Z,24
2017-12-25T14:00:51.000Z,24
2017-12-25T14:10:51.000Z,24.04
2017-12-25T14:20:51.000Z,24.03
2017-12-25T14:30:51.000Z,24.06
2017-12-25T14:40:51.000Z,24.01
2017-12-25T14:50:51.000Z,24.09
2017-12-25T15:00:51.000Z,24.01
2017-12-25T15:10:51.000Z,24.13
2017-12-25T15:20:51.000Z,24.04
2017-12-25T15:30:51.000Z,24.2
2017-12-25T15:40:51.000Z,24.07
2017-12-25T15:50:51.000Z,23.84
2017-12-25T16:00:51.000Z,23.77
2017-12-25T16:10:51.000Z,23.76
2017-12-25T16:20:51.000Z,23.75
2017-12-25T16:30:51.000Z,23.69
2017-12-25T16:40:51.000Z,23.7
2017-12-25T16:50:51.000Z,23.73
2017-12-25T17:00:51.000Z,23.64
2017-12-25T17:10:51.000Z,23.64
2017-12-25T17:20:51.000Z,23.56
2017-12-25T17:30:51.000Z,23.55
2017-12-25T17:40:51.000Z,23.58
2017-12-25T17:50:51.000Z,23.51
2017-12-25T18:00:51.000Z,23.5
2017-12-25T18:10:51.000Z,23.59
2017-12-25T18:20:51.000Z,23.5
2017-12-25T18:30:51.000Z,23.48
2017-12-25T18:40:51.000Z,23.44
2017-12-25T18:50:51.000Z,23.42
2017-12-25T19:00:51.000Z,23.41
2017-12-25T19:10:51.000Z,23.43
2017-12-25T19:20:51.000Z,23.39
2017-12-25T19:30:51.000Z,23.35
2017-12-25T19:40:51.000Z,23.37
2017-12-25T19:50:51.000Z,23.38
2017-12-25T20:00:52.000Z,23.41
2017-12-25T20:10:52.000Z,23.42
2017-12-25T20:20:52.000Z,23.35
2017-12-25T20:30:52.000Z,23.35
2017-12-25T20:40:53.000Z,23.36
2017-12-25T20:50:52.000Z,23.35
2017-12-25T21:00:52.000Z,23.39
2017-12-25T21:10:52.000Z,23.32
2017-12-25T21:20:52.000Z,23.29
2017-12-25T21:30:52.000Z,23.29
2017-12-25T21:40:52.000Z,23.31
2017-12-25T21:50:52.000Z,23.33
2017-12-25T22:00:52.000Z,23.28
2017-12-25T22:10:52.000Z,23.24
2017-12-25T22:20:52.000Z,23.23
2017-12-25T22:30:52.000Z,23.19
2017-12-25T22:40:52.000Z,23.16
2017-12-25T22:50:52.000Z,23.15
2017-12-25T23:00:52.000Z,23.09
2017-12-25T23:10:52.000Z,23.04
2017-12-25T23:20:52.000Z,22.94
2017-12-25T23:30:52.000Z,22.92
2017-12-25T23:40:52.000Z,22.8
2017-12-25T23:50:52.000Z,22.79
